Time,TemperatureF,DewpointF,PressureIn,WindDirection,WindDirectionDegrees,WindSpeedMPH,WindSpeedGustMPH,Humidity,HourlyPrecipIn,Conditions,Clouds,dailyrainin,SoftwareType,DateUTC
2013-05-15 00:04:00,48.3,37.5,29.70,SSW,196,0.0,0.0,66,0.00,CLR,,0.00,WeatherDisplay:10.37,2013-05-15 06:04:00,
2013-05-15 00:09:00,48.3,36.7,29.70,SSW,196,0.0,0.0,64,0.00,CLR,,0.00,WeatherDisplay:10.37,2013-05-15 06:09:00,
2013-05-15 00:14:00,48.3,36.7,29.70,SSW,196,0.0,0.0,64,0.00,CLR,,0.00,WeatherDisplay:10.37,2013-05-15 06:14:00,
2013-05-15 00:19:00,48.3,36.7,29.70,SSW,196,0.0,0.0,64,0.00,CLR,,0.00,WeatherDisplay:10.37,2013-05-15 06:19:00,
2013-05-15 00:24:00,48.3,37.5,29.70,SSW,196,0.0,0.0,66,0.00,CLR,,0.00,WeatherDisplay:10.37,2013-05-15 06:24:00,
2013-05-15 00:29:00,47.7,36.9,29.69,SSW,196,0.0,0.0,66,0.00,CLR,,0.00,WeatherDisplay:10.37,2013-05-15 06:29:00,
2013-05-15 00:34:00,47.4,36.2,29.69,SSW,196,0.0,0.0,65,0.00,CLR,,0.00,WeatherDisplay:10.37,2013-05-15 06:34:00,
2013-05-15 00:39:00,47.6,36.0,29.69,SSW,196,0.0,0.0,64,0.00,CLR,,0.00,WeatherDisplay:10.37,2013-05-15 06:39:00,
2013-05-15 00:44:00,47.4,36.6,29.69,SSW,196,0.0,0.0,66,0.00,CLR,,0.00,WeatherDisplay:10.37,2013-05-15 06:44:00,
2013-05-15 00:49:00,47.0,36.2,29.69,SSW,196,0.0,0.0,66,0.00,CLR,,0.00,WeatherDisplay:10.37,2013-05-15 06:49:00,
2013-05-15 00:54:00,46.7,37.1,29.69,SSW,196,0.0,0.0,69,0.00,CLR,,0.00,WeatherDisplay:10.37,2013-05-15 06:54:00,
2013-05-15 00:59:00,46.4,35.7,29.68,SSW,196,2.3,2.3,66,0.00,CLR,,0.00,WeatherDisplay:10.37,2013-05-15 06:59:00,
2013-05-15 01:04:00,46.5,35.7,29.68,SSW,196,2.3,2.3,66,0.00,CLR,,0.00,WeatherDisplay:10.37,2013-05-15 07:04:00,
2013-05-15 01:09:00,47.3,34.5,29.68,SW,220,3.5,3.5,61,0.00,CLR,,0.00,WeatherDisplay:10.37,2013-05-15 07:09:00,
2013-05-15 01:14:00,48.5,35.7,29.68,West,267,3.5,3.5,61,0.00,CLR,,0.00,WeatherDisplay:10.37,2013-05-15 07:14:00,
2013-05-15 01:19:00,48.9,34.8,29.68,West,266,4.0,4.0,58,0.00,CLR,,0.00,WeatherDisplay:10.37,2013-05-15 07:19:00,
2013-05-15 01:25:00,49.4,34.8,29.68,West,265,3.5,3.5,57,0.00,CLR,,0.00,WeatherDisplay:10.37,2013-05-15 07:25:00,
2013-05-15 01:30:00,49.6,34.5,29.68,West,265,2.3,2.3,56,0.00,CLR,,0.00,WeatherDisplay:10.37,2013-05-15 07:30:00,
2013-05-15 01:35:00,49.6,35.4,29.68,West,265,3.5,0.0,58,0.00,CLR,,0.00,WeatherDisplay:10.37,2013-05-15 07:35:00,
2013-05-15 01:40:00,49.1,35.8,29.68,West,265,0.0,0.0,60,0.00,CLR,,0.00,WeatherDisplay:10.37,2013-05-15 07:40:00,
2013-05-15 01:45:00,48.5,35.7,29.68,West,265,0.0,0.0,61,0.00,CLR,,0.00,WeatherDisplay:10.37,2013-05-15 07:45:00,
2013-05-15 01:50:00,48.0,35.2,29.68,West,265,2.3,2.3,61,0.00,CLR,,0.00,WeatherDisplay:10.37,2013-05-15 07:50:00,
2013-05-15 01:55:00,47.7,34.9,29.67,West,265,3.5,3.5,61,0.00,CLR,,0.00,WeatherDisplay:10.37,2013-05-15 07:55:00,
2013-05-15 02:00:00,47.9,34.3,29.67,West,265,3.5,3.5,59,0.00,CLR,,0.00,WeatherDisplay:10.37,2013-05-15 08:00:00,
2013-05-15 02:05:00,48.2,34.5,29.67,West,265,3.5,3.5,59,0.00,CLR,,0.00,WeatherDisplay:10.37,2013-05-15 08:05:00,
2013-05-15 02:10:00,48.5,34.4,29.67,West,265,3.5,3.5,58,0.00,CLR,,0.00,WeatherDisplay:10.37,2013-05-15 08:10:00,
2013-05-15 02:15:00,48.5,34.8,29.67,West,265,0.0,0.0,59,0.00,CLR,,0.00,WeatherDisplay:10.37,2013-05-15 08:15:00,
2013-05-15 02:20:00,48.0,35.6,29.67,West,265,0.0,0.0,62,0.00,CLR,,0.00,WeatherDisplay:10.37,2013-05-15 08:20:00,
2013-05-15 02:25:00,47.4,35.4,29.67,West,265,0.0,0.0,63,0.00,CLR,,0.00,WeatherDisplay:10.37,2013-05-15 08:25:00,
2013-05-15 02:30:00,47.0,34.6,29.67,West,265,0.0,0.0,62,0.00,CLR,,0.00,WeatherDisplay:10.37,2013-05-15 08:30:00,
2013-05-15 02:35:00,46.8,34.9,29.67,West,265,0.0,0.0,63,0.00,CLR,,0.00,WeatherDisplay:10.37,2013-05-15 08:35:00,
2013-05-15 02:40:00,46.8,34.5,29.67,West,265,0.0,0.0,62,0.00,CLR,,0.00,WeatherDisplay:10.37,2013-05-15 08:40:00,
2013-05-15 02:45:00,46.8,34.9,29.67,West,265,0.0,0.0,63,0.00,CLR,,0.00,WeatherDisplay:10.37,2013-05-15 08:45:00,
2013-05-15 02:50:00,46.5,34.6,29.67,West,265,0.0,0.0,63,0.00,CLR,,0.00,WeatherDisplay:10.37,2013-05-15 08:50:00,
2013-05-15 02:55:00,46.4,34.5,29.67,West,265,0.0,0.0,63,0.00,CLR,,0.00,WeatherDisplay:10.37,2013-05-15 08:55:00,
2013-05-15 03:00:00,46.5,34.2,29.67,West,265,0.0,0.0,62,0.00,CLR,,0.00,WeatherDisplay:10.37,2013-05-15 09:00:00,
2013-05-15 03:05:00,46.7,34.0,29.67,West,265,0.0,0.0,61,0.00,CLR,,0.00,WeatherDisplay:10.37,2013-05-15 09:05:00,
2013-05-15 03:10:00,46.5,34.6,29.66,West,265,2.3,2.3,63,0.00,CLR,,0.00,WeatherDisplay:10.37,2013-05-15 09:10:00,
2013-05-15 03:16:00,46.1,34.2,29.66,West,265,0.0,0.0,63,0.00,CLR,,0.00,WeatherDisplay:10.37,2013-05-15 09:16:00,
2013-05-15 04:02:00,44.5,34.2,29.67,North,360,0.0,0.0,67,0.00,CLR,,0.00,WeatherDisplay:10.37,2013-05-15 10:02:00,
2013-05-15 04:07:00,44.1,34.9,29.67,North,360,0.0,0.0,70,0.00,CLR,,0.00,WeatherDisplay:10.37,2013-05-15 10:07:00,
2013-05-15 04:12:00,43.5,34.4,29.67,North,360,0.0,0.0,70,0.00,CLR,,0.00,WeatherDisplay:10.37,2013-05-15 10:12:00,
2013-05-15 04:18:00,43.1,34.3,29.67,North,360,0.0,0.0,71,0.00,CLR,,0.00,WeatherDisplay:10.37,2013-05-15 10:18:00,
2013-05-15 04:23:00,42.9,34.5,29.67,North,360,0.0,0.0,72,0.00,CLR,,0.00,WeatherDisplay:10.37,2013-05-15 10:23:00,
2013-05-15 04:28:00,42.8,34.4,29.67,West,265,0.0,0.0,72,0.00,CLR,,0.00,WeatherDisplay:10.37,2013-05-15 10:28:00,
2013-05-15 04:33:00,42.8,34.0,29.68,West,265,0.0,0.0,71,0.00,CLR,,0.00,WeatherDisplay:10.37,2013-05-15 10:33:00,
2013-05-15 04:38:00,42.5,33.8,29.68,West,265,0.0,0.0,71,0.00,CLR,,0.00,WeatherDisplay:10.37,2013-05-15 10:38:00,
2013-05-15 04:43:00,42.1,33.4,29.69,West,265,2.3,0.0,71,0.00,CLR,,0.00,WeatherDisplay:10.37,2013-05-15 10:43:00,
2013-05-15 04:48:00,41.8,33.8,29.69,North,360,0.0,0.0,73,0.00,CLR,,0.00,WeatherDisplay:10.37,2013-05-15 10:48:00,
2013-05-15 04:53:00,41.8,33.8,29.69,West,265,3.5,3.5,73,0.00,CLR,,0.00,WeatherDisplay:10.37,2013-05-15 10:53:00,
2013-05-15 04:58:00,41.6,33.6,29.69,North,360,3.5,3.5,73,0.00,CLR,,0.00,WeatherDisplay:10.37,2013-05-15 10:58:00,
2013-05-15 05:03:00,42.1,32.3,29.68,West,265,3.5,3.5,68,0.00,CLR,,0.00,WeatherDisplay:10.37,2013-05-15 11:03:00,
2013-05-15 05:08:00,42.6,32.0,29.68,West,265,3.5,3.5,66,0.00,CLR,,0.00,WeatherDisplay:10.37,2013-05-15 11:08:00,
2013-05-15 05:13:00,42.9,32.3,29.68,West,265,3.0,3.0,66,0.00,CLR,,0.00,WeatherDisplay:10.37,2013-05-15 11:13:00,
2013-05-15 05:18:00,42.8,32.6,29.68,West,265,3.5,3.5,67,0.00,CLR,,0.00,WeatherDisplay:10.37,2013-05-15 11:18:00,
2013-05-15 05:23:00,42.5,32.3,29.68,West,265,3.5,3.5,67,0.00,CLR,,0.00,WeatherDisplay:10.37,2013-05-15 11:23:00,
2013-05-15 05:29:00,42.1,33.0,29.69,North,360,0.0,0.0,70,0.00,CLR,,0.00,WeatherDisplay:10.37,2013-05-15 11:29:00,
2013-05-15 05:34:00,41.6,32.5,29.69,West,265,0.0,0.0,70,0.00,CLR,,0.00,WeatherDisplay:10.37,2013-05-15 11:34:00,
2013-05-15 05:39:00,41.8,32.7,29.69,West,265,0.0,0.0,70,0.00,CLR,,0.00,WeatherDisplay:10.37,2013-05-15 11:39:00,
2013-05-15 05:45:00,41.8,33.1,29.69,West,265,3.0,3.0,71,0.00,CLR,,0.00,WeatherDisplay:10.37,2013-05-15 11:45:00,
2013-05-15 05:51:00,41.8,32.7,29.69,West,265,2.3,2.3,70,0.00,CLR,,0.00,WeatherDisplay:10.37,2013-05-15 11:51:00,
2013-05-15 05:56:00,41.5,32.4,29.69,North,360,3.5,3.5,70,0.00,CLR,,0.00,WeatherDisplay:10.37,2013-05-15 11:56:00,
2013-05-15 06:03:00,41.2,32.5,29.69,North,360,3.5,3.5,71,0.00,CLR,,0.00,WeatherDisplay:10.37,2013-05-15 12:03:00,
2013-05-15 06:09:00,41.3,32.2,29.69,West,265,3.5,3.5,70,0.00,CLR,,0.00,WeatherDisplay:10.37,2013-05-15 12:09:00,
2013-05-15 06:14:00,41.8,32.0,29.69,West,265,3.5,3.5,68,0.00,CLR,,0.00,WeatherDisplay:10.37,2013-05-15 12:14:00,
2013-05-15 06:19:00,42.8,32.2,29.69,West,265,3.5,3.5,66,0.00,CLR,,0.00,WeatherDisplay:10.37,2013-05-15 12:19:00,
2013-05-15 06:25:00,43.5,31.7,29.69,West,265,2.3,2.3,63,0.00,CLR,,0.00,WeatherDisplay:10.37,2013-05-15 12:25:00,
2013-05-15 06:30:00,44.1,32.7,29.69,West,265,0.0,0.0,64,0.00,CLR,,0.00,WeatherDisplay:10.37,2013-05-15 12:30:00,
2013-05-15 06:35:00,43.8,33.6,29.69,West,265,0.0,0.0,67,0.00,CLR,,0.00,WeatherDisplay:10.37,2013-05-15 12:35:00,
2013-05-15 06:40:00,43.5,33.6,29.69,West,265,0.0,0.0,68,0.00,CLR,,0.00,WeatherDisplay:10.37,2013-05-15 12:40:00,
2013-05-15 06:45:00,43.8,33.9,29.70,West,265,0.0,0.0,68,0.00,CLR,,0.00,WeatherDisplay:10.37,2013-05-15 12:45:00,
2013-05-15 06:50:00,44.2,35.0,29.70,West,265,0.0,0.0,70,0.00,CLR,,0.00,WeatherDisplay:10.37,2013-05-15 12:50:00,
2013-05-15 06:55:00,45.1,35.9,29.69,West,265,0.0,0.0,70,0.00,CLR,,0.00,WeatherDisplay:10.37,2013-05-15 12:55:00,
2013-05-15 07:00:00,46.0,37.1,29.69,West,265,0.0,0.0,71,0.00,CLR,,0.00,WeatherDisplay:10.37,2013-05-15 13:00:00,
2013-05-15 07:05:00,46.7,37.4,29.69,West,265,0.0,0.0,70,0.00,CLR,,0.00,WeatherDisplay:10.37,2013-05-15 13:05:00,
2013-05-15 07:10:00,47.6,37.2,29.69,West,265,0.0,0.0,67,0.00,CLR,,0.00,WeatherDisplay:10.37,2013-05-15 13:10:00,
2013-05-15 07:16:00,48.6,38.1,29.69,West,265,0.0,0.0,67,0.00,CLR,,0.00,WeatherDisplay:10.37,2013-05-15 13:16:00,
2013-05-15 07:21:00,50.7,39.0,29.68,West,265,0.0,0.0,64,0.00,CLR,,0.00,WeatherDisplay:10.37,2013-05-15 13:21:00,
2013-05-15 07:26:00,52.2,37.9,29.68,West,265,0.0,0.0,58,0.00,CLR,,0.00,WeatherDisplay:10.37,2013-05-15 13:26:00,
2013-05-15 07:32:00,53.3,38.4,29.68,West,265,0.0,0.0,57,0.00,CLR,,0.00,WeatherDisplay:10.37,2013-05-15 13:32:00,
2013-05-15 07:37:00,53.8,38.0,29.68,West,265,1.0,1.0,55,0.00,CLR,,0.00,WeatherDisplay:10.37,2013-05-15 13:37:00,
2013-05-15 07:42:00,53.6,36.9,29.68,West,265,0.0,0.0,53,0.00,CLR,,0.00,WeatherDisplay:10.37,2013-05-15 13:42:00,
2013-05-15 07:47:00,53.2,36.5,29.68,West,265,1.1,0.0,53,0.00,CLR,,0.00,WeatherDisplay:10.37,2013-05-15 13:47:00,
2013-05-15 07:53:00,53.2,36.5,29.69,West,265,0.0,0.0,53,0.00,CLR,,0.00,WeatherDisplay:10.37,2013-05-15 13:53:00,
2013-05-15 07:58:00,53.2,35.0,29.69,West,265,0.0,0.0,50,0.00,CLR,,0.00,WeatherDisplay:10.37,2013-05-15 13:58:00,
2013-05-15 08:03:00,53.5,35.8,29.69,West,265,1.1,1.1,51,0.00,CLR,,0.00,WeatherDisplay:10.37,2013-05-15 14:03:00,
2013-05-15 08:08:00,53.8,36.6,29.69,West,265,0.0,0.0,52,0.00,CLR,,0.00,WeatherDisplay:10.37,2013-05-15 14:08:00,
2013-05-15 08:13:00,54.2,37.4,29.69,West,265,3.5,3.5,53,0.00,CLR,,0.00,WeatherDisplay:10.37,2013-05-15 14:13:00,
2013-05-15 08:18:00,54.1,37.8,29.69,West,265,2.0,0.0,54,0.00,CLR,,0.00,WeatherDisplay:10.37,2013-05-15 14:18:00,
2013-05-15 08:23:00,54.4,38.6,29.69,West,265,0.0,0.1,55,0.00,CLR,,0.00,WeatherDisplay:10.37,2013-05-15 14:23:00,
2013-05-15 08:28:00,54.7,37.4,29.69,West,265,0.0,0.0,52,0.00,CLR,,0.00,WeatherDisplay:10.37,2013-05-15 14:28:00,
2013-05-15 08:33:00,55.1,37.8,29.69,West,265,0.0,0.0,52,0.00,CLR,,0.00,WeatherDisplay:10.37,2013-05-15 14:33:00,
2013-05-15 08:39:00,55.6,37.7,29.69,SSE,158,1.1,0.0,51,0.00,CLR,,0.00,WeatherDisplay:10.37,2013-05-15 14:39:00,
2013-05-15 08:44:00,56.0,38.6,29.69,ENE,68,2.3,2.3,52,0.00,CLR,,0.00,WeatherDisplay:10.37,2013-05-15 14:44:00,
2013-05-15 08:49:00,56.0,39.1,29.69,ENE,68,2.3,2.3,53,0.00,CLR,,0.00,WeatherDisplay:10.37,2013-05-15 14:49:00,
2013-05-15 08:54:00,55.3,38.0,29.69,ENE,68,0.0,0.0,52,0.00,CLR,,0.00,WeatherDisplay:10.37,2013-05-15 14:54:00,
2013-05-15 09:00:00,55.1,37.8,29.69,ENE,68,2.3,2.3,52,0.00,CLR,,0.00,WeatherDisplay:10.37,2013-05-15 15:00:00,
2013-05-15 09:05:00,55.1,39.2,29.69,ENE,68,1.1,1.1,55,0.00,CLR,,0.00,WeatherDisplay:10.37,2013-05-15 15:05:00,
2013-05-15 09:10:00,55.4,39.5,29.69,ENE,68,2.3,2.3,55,0.00,CLR,,0.00,WeatherDisplay:10.37,2013-05-15 15:10:00,
2013-05-15 09:15:00,56.3,39.4,29.69,NE,52,3.5,0.0,53,0.00,CLR,,0.00,WeatherDisplay:10.37,2013-05-15 15:15:00,
2013-05-15 09:20:00,57.3,39.8,29.69,East,100,3.5,3.5,52,0.00,CLR,,0.00,WeatherDisplay:10.37,2013-05-15 15:20:00,
2013-05-15 09:26:00,58.0,39.5,29.69,ENE,71,3.5,3.5,50,0.00,CLR,,0.00,WeatherDisplay:10.37,2013-05-15 15:26:00,
2013-05-15 09:31:00,58.7,40.1,29.69,ENE,63,3.5,3.5,50,0.00,CLR,,0.00,WeatherDisplay:10.37,2013-05-15 15:31:00,
2013-05-15 09:36:00,59.3,39.6,29.68,ENE,78,3.5,3.5,48,0.00,CLR,,0.00,WeatherDisplay:10.37,2013-05-15 15:36:00,
2013-05-15 09:41:00,59.8,39.0,29.69,ENE,66,3.5,3.5,46,0.00,CLR,,0.00,WeatherDisplay:10.37,2013-05-15 15:41:00,
2013-05-15 09:46:00,60.1,36.9,29.69,SE,134,3.5,3.5,42,0.00,CLR,,0.00,WeatherDisplay:10.37,2013-05-15 15:46:00,
2013-05-15 09:52:00,60.5,38.5,29.68,East,92,1.1,1.5,44,0.00,CLR,,0.00,WeatherDisplay:10.37,2013-05-15 15:52:00,
2013-05-15 09:57:00,61.0,37.1,29.68,ESE,118,3.5,3.5,41,0.00,CLR,,0.00,WeatherDisplay:10.37,2013-05-15 15:57:00,
2013-05-15 10:02:00,61.6,38.3,29.68,ENE,67,4.6,4.6,42,0.00,CLR,,0.00,WeatherDisplay:10.37,2013-05-15 16:02:00,
2013-05-15 10:07:00,61.6,36.4,29.68,SE,126,3.5,0.0,39,0.00,CLR,,0.00,WeatherDisplay:10.37,2013-05-15 16:07:00,
2013-05-15 10:12:00,61.8,37.2,29.68,NE,49,4.6,4.6,40,0.00,CLR,,0.00,WeatherDisplay:10.37,2013-05-15 16:12:00,
2013-05-15 10:17:00,62.3,39.5,29.68,East,90,5.8,5.8,43,0.00,CLR,,0.00,WeatherDisplay:10.37,2013-05-15 16:17:00,
2013-05-15 10:23:00,63.2,40.3,29.68,East,84,10.4,10.4,43,0.00,CLR,,0.00,WeatherDisplay:10.37,2013-05-15 16:23:00,
2013-05-15 10:28:00,63.4,36.7,29.68,ENE,72,4.6,4.6,37,0.00,CLR,,0.00,WeatherDisplay:10.37,2013-05-15 16:28:00,
2013-05-15 10:33:00,62.7,36.0,29.68,ENE,70,3.5,3.5,37,0.00,CLR,,0.00,WeatherDisplay:10.37,2013-05-15 16:33:00,
2013-05-15 10:38:00,62.6,36.6,29.68,East,101,3.5,3.5,38,0.00,CLR,,0.00,WeatherDisplay:10.37,2013-05-15 16:38:00,
2013-05-15 10:43:00,62.3,37.0,29.68,ENE,59,3.5,3.5,39,0.00,CLR,,0.00,WeatherDisplay:10.37,2013-05-15 16:43:00,
2013-05-15 10:49:00,62.7,37.4,29.68,East,97,3.5,3.5,39,0.00,CLR,,0.00,WeatherDisplay:10.37,2013-05-15 16:49:00,
2013-05-15 10:54:00,63.4,33.0,29.68,East,84,8.1,8.1,32,0.00,CLR,,0.00,WeatherDisplay:10.37,2013-05-15 16:54:00,
2013-05-15 10:59:00,63.1,36.4,29.68,ENE,64,3.5,3.5,37,0.00,CLR,,0.00,WeatherDisplay:10.37,2013-05-15 16:59:00,
2013-05-15 11:04:00,63.7,38.3,29.68,East,92,9.2,9.2,39,0.00,CLR,,0.00,WeatherDisplay:10.37,2013-05-15 17:04:00,
2013-05-15 11:10:00,64.3,35.3,29.68,ENE,71,8.1,8.1,34,0.00,CLR,,0.00,WeatherDisplay:10.37,2013-05-15 17:10:00,
2013-05-15 11:15:00,65.6,31.6,29.68,ESE,103,6.9,6.9,28,0.00,CLR,,0.00,WeatherDisplay:10.37,2013-05-15 17:15:00,
2013-05-15 11:20:00,65.3,33.9,29.68,ENE,71,8.1,8.1,31,0.00,CLR,,0.00,WeatherDisplay:10.37,2013-05-15 17:20:00,
2013-05-15 11:26:00,65.5,34.8,29.68,East,90,3.5,3.5,32,0.00,CLR,,0.00,WeatherDisplay:10.37,2013-05-15 17:26:00,
2013-05-15 11:31:00,65.8,30.9,29.68,ENE,76,4.6,4.6,27,0.00,CLR,,0.00,WeatherDisplay:10.37,2013-05-15 17:31:00,
2013-05-15 11:36:00,66.1,33.7,29.67,ENE,60,8.0,8.0,30,0.00,CLR,,0.00,WeatherDisplay:10.37,2013-05-15 17:36:00,
2013-05-15 11:41:00,65.8,31.8,29.68,ENE,68,5.8,5.8,28,0.00,CLR,,0.00,WeatherDisplay:10.37,2013-05-15 17:41:00,
2013-05-15 11:46:00,65.6,34.9,29.67,NE,49,3.5,3.5,32,0.00,CLR,,0.00,WeatherDisplay:10.37,2013-05-15 17:46:00,
2013-05-15 11:52:00,65.8,37.4,29.67,SE,130,4.6,4.6,35,0.00,CLR,,0.00,WeatherDisplay:10.37,2013-05-15 17:52:00,
2013-05-15 11:57:00,65.2,36.1,29.67,ESE,119,5.8,5.8,34,0.00,CLR,,0.00,WeatherDisplay:10.37,2013-05-15 17:57:00,
2013-05-15 12:02:00,64.3,32.2,29.67,SE,127,4.6,4.6,30,0.00,CLR,,0.00,WeatherDisplay:10.37,2013-05-15 18:02:00,
2013-05-15 12:08:00,64.3,34.6,29.67,NE,52,5.8,5.8,33,0.00,CLR,,0.00,WeatherDisplay:10.37,2013-05-15 18:08:00,
2013-05-15 12:13:00,64.8,35.8,29.66,ESE,120,5.8,5.8,34,0.00,CLR,,0.00,WeatherDisplay:10.37,2013-05-15 18:13:00,
2013-05-15 12:18:00,65.6,33.3,29.66,SE,130,3.5,3.5,30,0.00,CLR,,0.00,WeatherDisplay:10.37,2013-05-15 18:18:00,
2013-05-15 12:23:00,65.6,34.9,29.66,ENE,65,4.6,4.6,32,0.00,CLR,,0.00,WeatherDisplay:10.37,2013-05-15 18:23:00,
2013-05-15 12:28:00,65.5,35.6,29.66,ESE,108,4.6,4.6,33,0.00,CLR,,0.00,WeatherDisplay:10.37,2013-05-15 18:28:00,
2013-05-15 12:33:00,65.2,31.2,29.66,ENE,63,9.2,9.2,28,0.00,CLR,,0.00,WeatherDisplay:10.37,2013-05-15 18:33:00,
2013-05-15 12:38:00,65.5,34.0,29.66,East,91,2.3,2.3,31,0.00,CLR,,0.00,WeatherDisplay:10.37,2013-05-15 18:38:00,
2013-05-15 12:43:00,66.4,34.0,29.67,North,11,9.0,9.0,30,0.00,CLR,,0.00,WeatherDisplay:10.37,2013-05-15 18:43:00,
2013-05-15 12:49:00,65.8,34.3,29.67,North,360,10.4,10.4,31,0.00,CLR,,0.00,WeatherDisplay:10.37,2013-05-15 18:49:00,
2013-05-15 12:54:00,65.3,36.9,29.67,North,351,11.5,11.5,35,0.00,CLR,,0.00,WeatherDisplay:10.37,2013-05-15 18:54:00,
2013-05-15 12:59:00,65.3,35.4,29.67,SW,230,8.0,8.0,33,0.00,CLR,,0.00,WeatherDisplay:10.37,2013-05-15 18:59:00,
2013-05-15 13:04:00,64.8,32.6,29.67,NNE,28,9.2,9.2,30,0.00,CLR,,0.00,WeatherDisplay:10.37,2013-05-15 19:04:00,
2013-05-15 13:09:00,64.0,32.7,29.68,North,349,11.5,11.5,31,0.00,CLR,,0.00,WeatherDisplay:10.37,2013-05-15 19:09:00,
2013-05-15 13:14:00,62.0,34.0,29.68,NNW,344,6.9,6.9,35,0.00,CLR,,0.00,WeatherDisplay:10.37,2013-05-15 19:14:00,
2013-05-15 13:19:00,61.2,35.4,29.68,NE,41,8.1,8.1,38,0.00,CLR,,0.00,WeatherDisplay:10.37,2013-05-15 19:19:00,
2013-05-15 13:24:00,60.5,34.7,29.68,NE,34,10.4,10.4,38,0.00,CLR,,0.00,WeatherDisplay:10.37,2013-05-15 19:24:00,
2013-05-15 13:29:00,60.1,35.7,29.69,ENE,59,9.2,9.2,40,0.00,CLR,,0.00,WeatherDisplay:10.37,2013-05-15 19:29:00,
2013-05-15 13:34:00,59.6,37.1,29.68,NW,306,5.0,5.0,43,0.00,CLR,,0.00,WeatherDisplay:10.37,2013-05-15 19:34:00,
2013-05-15 13:39:00,59.8,36.6,29.68,NNW,338,6.9,6.9,42,0.00,CLR,,0.00,WeatherDisplay:10.37,2013-05-15 19:39:00,
2013-05-15 13:45:00,59.9,34.2,29.69,North,9,4.6,4.6,38,0.00,CLR,,0.00,WeatherDisplay:10.37,2013-05-15 19:45:00,
2013-05-15 13:50:00,59.6,33.9,29.69,NNE,12,5.8,5.8,38,0.00,CLR,,0.00,WeatherDisplay:10.37,2013-05-15 19:50:00,
2013-05-15 13:55:00,59.6,34.6,29.69,WNW,298,3.5,3.5,39,0.00,CLR,,0.00,WeatherDisplay:10.37,2013-05-15 19:55:00,
2013-05-15 14:01:00,59.8,34.1,29.69,WNW,285,6.9,6.9,38,0.00,CLR,,0.00,WeatherDisplay:10.37,2013-05-15 20:01:00,
2013-05-15 14:06:00,59.6,35.2,29.69,WNW,286,1.1,1.1,40,0.00,CLR,,0.00,WeatherDisplay:10.37,2013-05-15 20:06:00,
2013-05-15 14:11:00,59.2,34.9,29.69,NW,319,2.3,2.3,40,0.00,CLR,,0.00,WeatherDisplay:10.37,2013-05-15 20:11:00,
2013-05-15 14:16:00,59.0,34.7,29.69,NNW,346,3.5,3.5,40,0.00,CLR,,0.00,WeatherDisplay:10.37,2013-05-15 20:16:00,
2013-05-15 14:22:00,58.7,35.0,29.69,NNW,346,3.5,0.0,41,0.00,CLR,,0.00,WeatherDisplay:10.37,2013-05-15 20:22:00,
2013-05-15 14:27:00,58.6,35.0,29.69,SW,228,2.0,0.0,41,0.00,CLR,,0.00,WeatherDisplay:10.37,2013-05-15 20:27:00,
2013-05-15 14:32:00,58.6,34.3,29.69,SW,230,1.1,1.1,40,0.00,CLR,,0.00,WeatherDisplay:10.37,2013-05-15 20:32:00,
2013-05-15 14:37:00,58.4,34.2,29.69,SW,230,0.0,0.0,40,0.00,CLR,,0.00,WeatherDisplay:10.37,2013-05-15 20:37:00,
2013-05-15 14:42:00,58.3,34.7,29.69,SW,230,0.0,0.0,41,0.00,CLR,,0.00,WeatherDisplay:10.37,2013-05-15 20:42:00,
2013-05-15 14:48:00,58.3,34.1,29.69,SW,230,0.0,0.0,40,0.00,CLR,,0.00,WeatherDisplay:10.37,2013-05-15 20:48:00,
2013-05-15 14:53:00,58.1,35.7,29.69,SW,230,0.0,0.0,43,0.00,CLR,,0.00,WeatherDisplay:10.37,2013-05-15 20:53:00,
2013-05-15 14:58:00,58.0,36.2,29.69,SW,230,0.0,0.0,44,0.00,CLR,,0.00,WeatherDisplay:10.37,2013-05-15 20:58:00,
2013-05-15 15:03:00,57.6,34.1,29.68,SW,230,0.0,0.0,41,0.00,CLR,,0.00,WeatherDisplay:10.37,2013-05-15 21:03:00,
2013-05-15 15:08:00,57.3,34.4,29.68,West,278,2.3,0.0,42,0.00,CLR,,0.00,WeatherDisplay:10.37,2013-05-15 21:08:00,
2013-05-15 15:14:00,57.2,33.7,29.68,West,278,0.0,0.0,41,0.00,CLR,,0.00,WeatherDisplay:10.37,2013-05-15 21:14:00,
2013-05-15 15:19:00,57.3,33.8,29.68,West,277,2.0,2.0,41,0.00,CLR,,0.00,WeatherDisplay:10.37,2013-05-15 21:19:00,
2013-05-15 15:24:00,57.5,34.6,29.68,West,279,3.0,3.0,42,0.00,CLR,,0.00,WeatherDisplay:10.37,2013-05-15 21:24:00,
2013-05-15 15:29:00,57.8,34.2,29.68,West,279,2.3,0.0,41,0.00,CLR,,0.00,WeatherDisplay:10.37,2013-05-15 21:29:00,
2013-05-15 15:34:00,58.3,32.8,29.68,SSW,200,0.0,0.0,38,0.00,CLR,,0.00,WeatherDisplay:10.37,2013-05-15 21:34:00,
2013-05-15 15:40:00,59.0,35.3,29.68,SSW,200,0.0,0.0,41,0.00,CLR,,0.00,WeatherDisplay:10.37,2013-05-15 21:40:00,
2013-05-15 15:45:00,59.5,34.5,29.68,SSE,153,4.6,4.6,39,0.00,CLR,,0.00,WeatherDisplay:10.37,2013-05-15 21:45:00,
2013-05-15 15:50:00,59.6,35.2,29.67,SE,135,2.3,2.3,40,0.00,CLR,,0.00,WeatherDisplay:10.37,2013-05-15 21:50:00,
2013-05-15 15:55:00,59.5,33.9,29.67,ESE,106,0.0,0.0,38,0.00,CLR,,0.00,WeatherDisplay:10.37,2013-05-15 21:55:00,
2013-05-15 16:00:00,59.5,35.8,29.67,ESE,106,0.0,0.0,41,0.00,CLR,,0.00,WeatherDisplay:10.37,2013-05-15 22:00:00,
2013-05-15 16:06:00,59.6,33.9,29.67,ESE,106,0.0,0.0,38,0.00,CLR,,0.00,WeatherDisplay:10.37,2013-05-15 22:06:00,
2013-05-15 16:11:00,59.3,33.7,29.67,ESE,107,0.0,0.0,38,0.00,CLR,,0.00,WeatherDisplay:10.37,2013-05-15 22:11:00,
2013-05-15 16:16:00,58.9,34.6,29.67,ESE,107,0.0,0.0,40,0.00,CLR,,0.00,WeatherDisplay:10.37,2013-05-15 22:16:00,
2013-05-15 16:22:00,58.7,36.2,29.67,ESE,107,0.0,0.0,43,0.00,CLR,,0.00,WeatherDisplay:10.37,2013-05-15 22:22:00,
2013-05-15 16:27:00,58.6,38.4,29.67,ESE,107,0.0,0.0,47,0.00,CLR,,0.00,WeatherDisplay:10.37,2013-05-15 22:27:00,
2013-05-15 16:32:00,58.4,36.6,29.67,ESE,107,0.0,0.0,44,0.00,CLR,,0.00,WeatherDisplay:10.37,2013-05-15 22:32:00,
2013-05-15 16:37:00,58.0,38.4,29.67,ESE,107,0.0,0.0,48,0.00,CLR,,0.00,WeatherDisplay:10.37,2013-05-15 22:37:00,
2013-05-15 16:42:00,57.5,37.9,29.67,West,263,2.3,2.3,48,0.00,CLR,,0.00,WeatherDisplay:10.37,2013-05-15 22:42:00,
2013-05-15 16:47:00,57.3,33.2,29.67,West,261,4.0,4.0,40,0.00,CLR,,0.00,WeatherDisplay:10.37,2013-05-15 22:47:00,
2013-05-15 16:53:00,57.3,31.9,29.67,West,262,9.2,9.2,38,0.00,CLR,,0.00,WeatherDisplay:10.37,2013-05-15 22:53:00,
2013-05-15 16:58:00,57.0,32.3,29.67,WSW,248,12.7,12.7,39,0.00,CLR,,0.00,WeatherDisplay:10.37,2013-05-15 22:58:00,
2013-05-15 17:04:00,56.7,33.8,29.67,WNW,292,5.8,5.8,42,0.00,CLR,,0.00,WeatherDisplay:10.37,2013-05-15 23:04:00,
2013-05-15 17:09:00,56.6,33.2,29.67,West,277,5.0,5.3,41,0.00,CLR,,0.00,WeatherDisplay:10.37,2013-05-15 23:09:00,
2013-05-15 17:14:00,56.6,33.8,29.67,WSW,252,12.7,12.7,42,0.00,CLR,,0.00,WeatherDisplay:10.37,2013-05-15 23:14:00,
2013-05-15 17:19:00,56.5,34.3,29.68,WNW,284,6.9,6.9,43,0.00,CLR,,0.00,WeatherDisplay:10.37,2013-05-15 23:19:00,
2013-05-15 17:24:00,56.3,33.5,29.68,West,280,3.5,3.5,42,0.00,CLR,,0.00,WeatherDisplay:10.37,2013-05-15 23:24:00,
2013-05-15 17:29:00,56.5,31.8,29.68,WSW,253,10.4,10.4,39,0.00,CLR,,0.00,WeatherDisplay:10.37,2013-05-15 23:29:00,
2013-05-15 17:34:00,56.7,32.6,29.68,WNW,296,8.1,8.1,40,0.00,CLR,,0.00,WeatherDisplay:10.37,2013-05-15 23:34:00,
2013-05-15 17:39:00,56.9,32.8,29.69,West,269,6.9,6.9,40,0.00,CLR,,0.00,WeatherDisplay:10.37,2013-05-15 23:39:00,
2013-05-15 17:44:00,56.9,32.2,29.68,West,272,10.4,10.4,39,0.00,CLR,,0.00,WeatherDisplay:10.37,2013-05-15 23:44:00,
2013-05-15 17:49:00,56.9,32.8,29.68,WSW,242,9.2,9.2,40,0.00,CLR,,0.00,WeatherDisplay:10.37,2013-05-15 23:49:00,
2013-05-15 17:54:00,56.7,32.6,29.69,West,277,5.8,5.8,40,0.00,CLR,,0.00,WeatherDisplay:10.37,2013-05-15 23:54:00,
2013-05-15 18:01:00,56.5,33.7,29.68,West,271,11.5,11.5,42,0.00,CLR,,0.00,WeatherDisplay:10.37,2013-05-16 00:01:00,
2013-05-15 18:07:00,56.3,34.6,29.68,West,268,4.6,4.6,44,0.00,CLR,,0.00,WeatherDisplay:10.37,2013-05-16 00:07:00,
2013-05-15 18:12:00,55.9,35.9,29.68,WSW,253,5.0,5.0,47,0.00,CLR,,0.00,WeatherDisplay:10.37,2013-05-16 00:12:00,
2013-05-15 18:18:00,55.4,36.0,29.68,West,263,12.7,12.7,48,0.00,CLR,,0.00,WeatherDisplay:10.37,2013-05-16 00:18:00,
2013-05-15 18:23:00,55.0,35.7,29.67,WNW,290,12.7,12.7,48,0.00,CLR,,0.00,WeatherDisplay:10.37,2013-05-16 00:23:00,
2013-05-15 18:29:00,54.5,35.7,29.68,WNW,292,10.4,10.4,49,0.00,CLR,,0.00,WeatherDisplay:10.37,2013-05-16 00:29:00,
2013-05-15 18:34:00,54.4,35.6,29.68,WSW,237,11.5,11.5,49,0.00,CLR,,0.00,WeatherDisplay:10.37,2013-05-16 00:34:00,
2013-05-15 18:39:00,54.4,35.6,29.67,West,259,13.8,13.8,49,0.00,CLR,,0.00,WeatherDisplay:10.37,2013-05-16 00:39:00,
2013-05-15 18:44:00,54.4,35.6,29.67,WSW,250,9.0,9.0,49,0.00,CLR,,0.00,WeatherDisplay:10.37,2013-05-16 00:44:00,
2013-05-15 18:49:00,54.2,35.4,29.68,West,277,8.1,8.1,49,0.00,CLR,,0.00,WeatherDisplay:10.37,2013-05-16 00:49:00,
2013-05-15 18:54:00,54.4,35.1,29.68,West,259,9.2,9.2,48,0.00,CLR,,0.00,WeatherDisplay:10.37,2013-05-16 00:54:00,
2013-05-15 18:59:00,54.4,34.6,29.68,West,281,5.8,5.8,47,0.00,CLR,,0.00,WeatherDisplay:10.37,2013-05-16 00:59:00,
2013-05-15 19:04:00,54.4,35.1,29.68,WNW,294,8.1,8.1,48,0.00,CLR,,0.00,WeatherDisplay:10.37,2013-05-16 01:04:00,
2013-05-15 19:10:00,54.5,34.1,29.68,West,270,8.1,8.1,46,0.00,CLR,,0.00,WeatherDisplay:10.37,2013-05-16 01:10:00,
2013-05-15 19:15:00,54.5,34.1,29.68,SW,234,5.0,5.0,46,0.00,CLR,,0.00,WeatherDisplay:10.37,2013-05-16 01:15:00,
2013-05-15 19:20:00,54.5,34.1,29.69,WNW,296,0.0,0.0,46,0.00,CLR,,0.00,WeatherDisplay:10.37,2013-05-16 01:20:00,
2013-05-15 19:25:00,54.7,34.3,29.69,West,263,5.0,5.0,46,0.00,CLR,,0.00,WeatherDisplay:10.37,2013-05-16 01:25:00,
2013-05-15 19:30:00,54.7,33.8,29.69,West,263,1.1,0.0,45,0.00,CLR,,0.00,WeatherDisplay:10.37,2013-05-16 01:30:00,
2013-05-15 19:36:00,54.5,36.2,29.70,West,263,0.0,0.0,50,0.00,CLR,,0.00,WeatherDisplay:10.37,2013-05-16 01:36:00,
2013-05-15 19:41:00,53.9,36.7,29.70,ENE,62,3.5,3.5,52,0.00,CLR,,0.00,WeatherDisplay:10.37,2013-05-16 01:41:00,
2013-05-15 19:46:00,53.5,36.8,29.70,North,360,0.0,0.0,53,0.00,CLR,,0.00,WeatherDisplay:10.37,2013-05-16 01:46:00,
2013-05-15 19:51:00,53.2,37.0,29.70,North,360,0.0,0.0,54,0.00,CLR,,0.00,WeatherDisplay:10.37,2013-05-16 01:51:00,
2013-05-15 19:57:00,52.9,37.6,29.70,North,360,0.0,0.0,56,0.00,CLR,,0.00,WeatherDisplay:10.37,2013-05-16 01:57:00,
2013-05-15 20:02:00,52.6,37.8,29.70,WSW,247,0.0,0.0,57,0.00,CLR,,0.00,WeatherDisplay:10.37,2013-05-16 02:02:00,
2013-05-15 20:07:00,52.2,38.7,29.68,North,360,0.0,0.0,60,0.00,CLR,,0.00,WeatherDisplay:10.37,2013-05-16 02:07:00,
2013-05-15 20:13:00,51.7,38.7,29.68,North,360,0.0,0.0,61,0.00,CLR,,0.00,WeatherDisplay:10.37,2013-05-16 02:13:00,
2013-05-15 20:18:00,51.3,37.4,29.68,WSW,248,3.5,3.5,59,0.00,CLR,,0.00,WeatherDisplay:10.37,2013-05-16 02:18:00,
2013-05-15 20:23:00,51.3,36.6,29.68,WSW,251,2.3,2.3,57,0.00,CLR,,0.00,WeatherDisplay:10.37,2013-05-16 02:23:00,
2013-05-15 20:28:00,51.4,36.2,29.68,WSW,251,1.1,1.1,56,0.00,CLR,,0.00,WeatherDisplay:10.37,2013-05-16 02:28:00,
2013-05-15 20:34:00,51.4,37.1,29.68,WSW,251,0.0,0.0,58,0.00,CLR,,0.00,WeatherDisplay:10.37,2013-05-16 02:34:00,
2013-05-15 20:39:00,50.7,37.3,29.68,WSW,251,0.0,0.0,60,0.00,CLR,,0.00,WeatherDisplay:10.37,2013-05-16 02:39:00,
2013-05-15 20:44:00,49.9,36.6,29.69,WSW,251,1.1,0.0,60,0.00,CLR,,0.00,WeatherDisplay:10.37,2013-05-16 02:44:00,
2013-05-15 20:50:00,49.5,36.6,29.69,WSW,251,0.0,0.0,61,0.00,CLR,,0.00,WeatherDisplay:10.37,2013-05-16 02:50:00,
2013-05-15 20:55:00,49.1,37.0,29.69,North,360,1.0,0.0,63,0.00,CLR,,0.00,WeatherDisplay:10.37,2013-05-16 02:55:00,
2013-05-15 21:00:00,48.5,36.9,29.69,WSW,251,0.0,0.0,64,0.00,CLR,,0.00,WeatherDisplay:10.37,2013-05-16 03:00:00,
2013-05-15 21:05:00,47.9,35.9,29.69,WSW,251,0.0,0.0,63,0.00,CLR,,0.00,WeatherDisplay:10.37,2013-05-16 03:05:00,
2013-05-15 21:10:00,47.4,36.2,29.69,WSW,251,0.0,0.0,65,0.00,CLR,,0.00,WeatherDisplay:10.37,2013-05-16 03:10:00,
2013-05-15 21:15:00,47.3,36.1,29.70,WSW,251,2.3,2.3,65,0.00,CLR,,0.00,WeatherDisplay:10.37,2013-05-16 03:15:00,
2013-05-15 21:20:00,47.1,36.3,29.70,WSW,251,0.0,0.0,66,0.00,CLR,,0.00,WeatherDisplay:10.37,2013-05-16 03:20:00,
2013-05-15 21:25:00,46.7,35.9,29.70,WSW,251,0.0,0.0,66,0.00,CLR,,0.00,WeatherDisplay:10.37,2013-05-16 03:25:00,
2013-05-15 21:30:00,46.2,35.8,29.70,WSW,251,0.0,0.0,67,0.00,CLR,,0.00,WeatherDisplay:10.37,2013-05-16 03:30:00,
2013-05-15 21:36:00,46.1,35.7,29.70,WSW,251,0.0,0.0,67,0.00,CLR,,0.00,WeatherDisplay:10.37,2013-05-16 03:36:00,
2013-05-15 21:40:00,46.1,35.7,29.71,WSW,251,0.0,0.0,67,0.00,CLR,,0.00,WeatherDisplay:10.37,2013-05-16 03:40:00,
2013-05-15 21:46:00,46.2,35.5,29.71,WSW,251,0.0,0.0,66,0.00,CLR,,0.00,WeatherDisplay:10.37,2013-05-16 03:46:00,
2013-05-15 21:51:00,46.2,35.1,29.72,WSW,251,0.0,0.0,65,0.00,CLR,,0.00,WeatherDisplay:10.37,2013-05-16 03:51:00,
2013-05-15 21:56:00,46.4,34.5,29.72,WSW,251,2.3,0.0,63,0.00,CLR,,0.00,WeatherDisplay:10.37,2013-05-16 03:56:00,
2013-05-15 22:01:00,46.4,34.9,29.72,WSW,251,0.0,0.0,64,0.00,CLR,,0.00,WeatherDisplay:10.37,2013-05-16 04:01:00,
2013-05-15 22:02:00,46.4,34.1,29.72,WSW,251,0.0,0.0,62,0.00,CLR,,0.00,WeatherDisplay:10.37,2013-05-16 04:02:00,
2013-05-15 22:07:00,46.1,35.4,29.72,WSW,250,1.1,1.1,66,0.00,CLR,,0.00,WeatherDisplay:10.37,2013-05-16 04:07:00,
2013-05-15 22:12:00,45.7,35.4,29.72,North,360,0.0,0.0,67,0.00,CLR,,0.00,WeatherDisplay:10.37,2013-05-16 04:12:00,
2013-05-15 22:18:00,45.2,34.9,29.72,WSW,250,2.3,2.3,67,0.00,CLR,,0.00,WeatherDisplay:10.37,2013-05-16 04:18:00,
2013-05-15 22:23:00,45.1,35.9,29.72,North,360,0.0,0.0,70,0.00,CLR,,0.00,WeatherDisplay:10.37,2013-05-16 04:23:00,
2013-05-15 22:28:00,44.9,35.3,29.73,WSW,250,0.0,0.0,69,0.00,CLR,,0.00,WeatherDisplay:10.37,2013-05-16 04:28:00,
2013-05-15 22:33:00,45.2,35.6,29.73,WSW,251,0.0,0.0,69,0.00,CLR,,0.00,WeatherDisplay:10.37,2013-05-16 04:33:00,
2013-05-15 22:38:00,45.4,35.8,29.73,WSW,250,0.0,0.0,69,0.00,CLR,,0.00,WeatherDisplay:10.37,2013-05-16 04:38:00,
2013-05-15 22:43:00,45.2,36.0,29.73,WSW,250,0.0,0.0,70,0.00,CLR,,0.00,WeatherDisplay:10.37,2013-05-16 04:43:00,
2013-05-15 22:48:00,45.1,35.9,29.73,WSW,251,0.0,0.0,70,0.00,CLR,,0.00,WeatherDisplay:10.37,2013-05-16 04:48:00,
2013-05-15 22:53:00,44.9,36.1,29.73,North,360,0.0,0.0,71,0.00,CLR,,0.00,WeatherDisplay:10.37,2013-05-16 04:53:00,
2013-05-15 22:58:00,44.8,36.0,29.72,WSW,251,0.0,0.0,71,0.00,CLR,,0.00,WeatherDisplay:10.37,2013-05-16 04:58:00,
2013-05-15 23:03:00,44.8,36.3,29.72,WSW,250,0.0,0.0,72,0.00,CLR,,0.00,WeatherDisplay:10.37,2013-05-16 05:03:00,
2013-05-15 23:08:00,44.9,36.1,29.72,WSW,250,0.0,0.0,71,0.00,CLR,,0.00,WeatherDisplay:10.37,2013-05-16 05:08:00,
2013-05-15 23:13:00,44.9,36.1,29.72,North,360,0.0,0.0,71,0.00,CLR,,0.00,WeatherDisplay:10.37,2013-05-16 05:13:00,
2013-05-15 23:18:00,44.9,36.4,29.72,WSW,251,0.0,0.0,72,0.00,CLR,,0.00,WeatherDisplay:10.37,2013-05-16 05:18:00,
2013-05-15 23:23:00,44.9,36.4,29.72,WSW,251,1.0,0.0,72,0.00,CLR,,0.00,WeatherDisplay:10.37,2013-05-16 05:23:00,
2013-05-15 23:28:00,44.8,36.3,29.72,WSW,251,0.0,0.0,72,0.00,CLR,,0.00,WeatherDisplay:10.37,2013-05-16 05:28:00,
2013-05-15 23:33:00,44.5,36.4,29.72,North,360,0.0,0.0,73,0.00,CLR,,0.00,WeatherDisplay:10.37,2013-05-16 05:33:00,
2013-05-15 23:38:00,44.2,36.4,29.72,North,360,0.0,0.0,74,0.00,CLR,,0.00,WeatherDisplay:10.37,2013-05-16 05:38:00,
2013-05-15 23:43:00,44.1,36.3,29.72,WSW,250,0.0,0.0,74,0.00,CLR,,0.00,WeatherDisplay:10.37,2013-05-16 05:43:00,
2013-05-15 23:48:00,44.1,36.3,29.72,WSW,251,0.0,0.0,74,0.00,CLR,,0.00,WeatherDisplay:10.37,2013-05-16 05:48:00,
2013-05-15 23:53:00,44.1,36.3,29.71,WSW,250,0.0,0.0,74,0.00,CLR,,0.00,WeatherDisplay:10.37,2013-05-16 05:53:00,
2013-05-15 23:58:00,43.8,36.0,29.71,WSW,250,0.0,0.0,74,0.00,CLR,,0.00,WeatherDisplay:10.37,2013-05-16 05:58:00,